sensor_id;sensor_type;location;lat;lon;timestamp;P1;durP1;ratioP1;P2;durP2;ratioP2
78887;SDS011;68276;49.326;8.690;2023-06-05T00:01:54;4.37;;;1.20;;
78887;SDS011;68276;49.326;8.690;2023-06-05T00:04:20;3.57;;;1.20;;
78887;SDS011;68276;49.326;8.690;2023-06-05T00:06:46;4.25;;;1.30;;
78887;SDS011;68276;49.326;8.690;2023-06-05T00:09:11;5.03;;;1.27;;
78887;SDS011;68276;49.326;8.690;2023-06-05T00:11:38;4.55;;;1.00;;
78887;SDS011;68276;49.326;8.690;2023-06-05T00:14:04;3.67;;;1.10;;
78887;SDS011;68276;49.326;8.690;2023-06-05T00:16:30;2.80;;;0.88;;
78887;SDS011;68276;49.326;8.690;2023-06-05T00:18:56;4.45;;;1.13;;
78887;SDS011;68276;49.326;8.690;2023-06-05T00:23:50;4.70;;;1.00;;
78887;SDS011;68276;49.326;8.690;2023-06-05T00:26:15;4.82;;;1.10;;
78887;SDS011;68276;49.326;8.690;2023-06-05T00:28:40;3.73;;;1.00;;
78887;SDS011;68276;49.326;8.690;2023-06-05T00:31:06;5.37;;;1.10;;
78887;SDS011;68276;49.326;8.690;2023-06-05T00:33:31;3.90;;;1.10;;
78887;SDS011;68276;49.326;8.690;2023-06-05T00:35:57;2.33;;;1.00;;
78887;SDS011;68276;49.326;8.690;2023-06-05T00:38:22;5.60;;;1.02;;
78887;SDS011;68276;49.326;8.690;2023-06-05T00:40:47;3.93;;;1.20;;
78887;SDS011;68276;49.326;8.690;2023-06-05T00:43:13;3.95;;;1.10;;
78887;SDS011;68276;49.326;8.690;2023-06-05T00:45:38;3.08;;;1.10;;
78887;SDS011;68276;49.326;8.690;2023-06-05T00:48:04;4.97;;;1.07;;
78887;SDS011;68276;49.326;8.690;2023-06-05T00:50:31;4.82;;;1.10;;
78887;SDS011;68276;49.326;8.690;2023-06-05T00:52:58;4.00;;;1.25;;
78887;SDS011;68276;49.326;8.690;2023-06-05T00:55:26;3.97;;;1.13;;
78887;SDS011;68276;49.326;8.690;2023-06-05T00:57:52;2.92;;;1.00;;
78887;SDS011;68276;49.326;8.690;2023-06-05T01:00:19;4.65;;;1.20;;
78887;SDS011;68276;49.326;8.690;2023-06-05T01:02:45;3.40;;;1.13;;
78887;SDS011;68276;49.326;8.690;2023-06-05T01:05:10;3.75;;;0.90;;
78887;SDS011;68276;49.326;8.690;2023-06-05T01:07:38;5.15;;;1.10;;
78887;SDS011;68276;49.326;8.690;2023-06-05T01:10:05;4.47;;;1.00;;
78887;SDS011;68276;49.326;8.690;2023-06-05T01:12:38;4.93;;;1.73;;
78887;SDS011;68276;49.326;8.690;2023-06-05T01:15:05;3.55;;;1.40;;
78887;SDS011;68276;49.326;8.690;2023-06-05T01:17:33;4.00;;;1.00;;
78887;SDS011;68276;49.326;8.690;2023-06-05T01:19:59;3.90;;;1.00;;
78887;SDS011;68276;49.326;8.690;2023-06-05T01:22:27;4.13;;;1.00;;
78887;SDS011;68276;49.326;8.690;2023-06-05T01:24:53;5.10;;;1.55;;
78887;SDS011;68276;49.326;8.690;2023-06-05T01:27:21;3.60;;;1.00;;
78887;SDS011;68276;49.326;8.690;2023-06-05T01:35:20;7.28;;;1.58;;
78887;SDS011;68276;49.326;8.690;2023-06-05T01:37:52;6.32;;;1.15;;
78887;SDS011;68276;49.326;8.690;2023-06-05T01:40:21;5.65;;;1.30;;
78887;SDS011;68276;49.326;8.690;2023-06-05T01:42:48;5.50;;;1.15;;
78887;SDS011;68276;49.326;8.690;2023-06-05T01:45:15;4.00;;;1.15;;
78887;SDS011;68276;49.326;8.690;2023-06-05T01:47:42;3.97;;;1.10;;
78887;SDS011;68276;49.326;8.690;2023-06-05T01:50:09;3.65;;;1.20;;
78887;SDS011;68276;49.326;8.690;2023-06-05T01:52:37;3.58;;;1.10;;
78887;SDS011;68276;49.326;8.690;2023-06-05T01:55:04;8.02;;;1.40;;
78887;SDS011;68276;49.326;8.690;2023-06-05T01:57:31;4.80;;;1.30;;
78887;SDS011;68276;49.326;8.690;2023-06-05T01:59:59;2.45;;;1.00;;
78887;SDS011;68276;49.326;8.690;2023-06-05T02:02:27;3.40;;;1.33;;
78887;SDS011;68276;49.326;8.690;2023-06-05T02:04:53;3.83;;;1.00;;
78887;SDS011;68276;49.326;8.690;2023-06-05T02:07:19;4.85;;;1.20;;
78887;SDS011;68276;49.326;8.690;2023-06-05T02:09:46;4.88;;;1.20;;
78887;SDS011;68276;49.326;8.690;2023-06-05T02:12:12;4.25;;;1.30;;
78887;SDS011;68276;49.326;8.690;2023-06-05T02:14:40;4.25;;;1.05;;
78887;SDS011;68276;49.326;8.690;2023-06-05T02:17:10;5.00;;;1.52;;
78887;SDS011;68276;49.326;8.690;2023-06-05T02:19:38;4.28;;;1.10;;
78887;SDS011;68276;49.326;8.690;2023-06-05T02:22:05;4.25;;;1.17;;
78887;SDS011;68276;49.326;8.690;2023-06-05T02:24:30;4.63;;;1.33;;
78887;SDS011;68276;49.326;8.690;2023-06-05T02:26:56;4.33;;;1.13;;
78887;SDS011;68276;49.326;8.690;2023-06-05T02:29:22;4.63;;;1.20;;
78887;SDS011;68276;49.326;8.690;2023-06-05T02:31:47;3.85;;;1.23;;
78887;SDS011;68276;49.326;8.690;2023-06-05T02:34:13;5.88;;;1.50;;
78887;SDS011;68276;49.326;8.690;2023-06-05T02:36:38;3.67;;;1.15;;
78887;SDS011;68276;49.326;8.690;2023-06-05T02:39:04;3.70;;;1.20;;
78887;SDS011;68276;49.326;8.690;2023-06-05T02:41:32;4.72;;;1.35;;
78887;SDS011;68276;49.326;8.690;2023-06-05T02:43:57;6.50;;;1.30;;
78887;SDS011;68276;49.326;8.690;2023-06-05T02:46:24;5.82;;;1.50;;
78887;SDS011;68276;49.326;8.690;2023-06-05T02:48:50;4.53;;;1.40;;
78887;SDS011;68276;49.326;8.690;2023-06-05T02:51:16;4.88;;;1.30;;
78887;SDS011;68276;49.326;8.690;2023-06-05T02:53:41;7.28;;;1.40;;
78887;SDS011;68276;49.326;8.690;2023-06-05T02:56:07;4.20;;;1.30;;
78887;SDS011;68276;49.326;8.690;2023-06-05T02:58:32;6.60;;;1.50;;
78887;SDS011;68276;49.326;8.690;2023-06-05T03:01:02;6.50;;;1.60;;
78887;SDS011;68276;49.326;8.690;2023-06-05T03:03:31;2.03;;;0.80;;
78887;SDS011;68276;49.326;8.690;2023-06-05T03:06:00;5.60;;;1.23;;
78887;SDS011;68276;49.326;8.690;2023-06-05T03:08:35;2.20;;;0.60;;
78887;SDS011;68276;49.326;8.690;2023-06-05T03:11:04;0.52;;;0.35;;
78887;SDS011;68276;49.326;8.690;2023-06-05T03:13:30;1.25;;;0.50;;
78887;SDS011;68276;49.326;8.690;2023-06-05T03:15:57;0.60;;;0.20;;
78887;SDS011;68276;49.326;8.690;2023-06-05T03:18:26;0.70;;;0.25;;
78887;SDS011;68276;49.326;8.690;2023-06-05T03:23:24;0.13;;;0.00;;
78887;SDS011;68276;49.326;8.690;2023-06-05T03:25:50;0.17;;;0.05;;
78887;SDS011;68276;49.326;8.690;2023-06-05T03:28:17;0.00;;;0.00;;
78887;SDS011;68276;49.326;8.690;2023-06-05T03:33:09;0.63;;;0.10;;
78887;SDS011;68276;49.326;8.690;2023-06-05T03:35:34;0.73;;;0.50;;
78887;SDS011;68276;49.326;8.690;2023-06-05T03:38:00;0.30;;;0.10;;
78887;SDS011;68276;49.326;8.690;2023-06-05T03:42:51;0.10;;;0.10;;
78887;SDS011;68276;49.326;8.690;2023-06-05T03:45:17;0.63;;;0.20;;
78887;SDS011;68276;49.326;8.690;2023-06-05T03:50:10;0.13;;;0.10;;
78887;SDS011;68276;49.326;8.690;2023-06-05T03:52:37;0.63;;;0.22;;
78887;SDS011;68276;49.326;8.690;2023-06-05T03:55:05;0.40;;;0.17;;
78887;SDS011;68276;49.326;8.690;2023-06-05T03:57:33;0.00;;;0.00;;
78887;SDS011;68276;49.326;8.690;2023-06-05T03:59:58;0.10;;;0.10;;
78887;SDS011;68276;49.326;8.690;2023-06-05T04:02:24;0.25;;;0.20;;
78887;SDS011;68276;49.326;8.690;2023-06-05T04:04:49;0.45;;;0.20;;
78887;SDS011;68276;49.326;8.690;2023-06-05T04:07:15;0.08;;;0.08;;
78887;SDS011;68276;49.326;8.690;2023-06-05T04:09:41;0.10;;;0.10;;
78887;SDS011;68276;49.326;8.690;2023-06-05T04:12:06;0.07;;;0.07;;
78887;SDS011;68276;49.326;8.690;2023-06-05T04:14:32;0.80;;;0.30;;
78887;SDS011;68276;49.326;8.690;2023-06-05T04:16:58;2.92;;;0.55;;
78887;SDS011;68276;49.326;8.690;2023-06-05T04:19:24;1.17;;;0.38;;
78887;SDS011;68276;49.326;8.690;2023-06-05T04:21:50;0.15;;;0.08;;
78887;SDS011;68276;49.326;8.690;2023-06-05T04:24:16;0.38;;;0.10;;
78887;SDS011;68276;49.326;8.690;2023-06-05T04:26:41;0.40;;;0.22;;
78887;SDS011;68276;49.326;8.690;2023-06-05T04:29:07;0.40;;;0.30;;
78887;SDS011;68276;49.326;8.690;2023-06-05T04:31:38;2.13;;;0.52;;
78887;SDS011;68276;49.326;8.690;2023-06-05T04:34:07;0.73;;;0.22;;
78887;SDS011;68276;49.326;8.690;2023-06-05T04:36:33;2.33;;;0.52;;
78887;SDS011;68276;49.326;8.690;2023-06-05T04:38:59;0.22;;;0.15;;
78887;SDS011;68276;49.326;8.690;2023-06-05T04:41:26;0.20;;;0.20;;
78887;SDS011;68276;49.326;8.690;2023-06-05T04:43:54;0.20;;;0.20;;
78887;SDS011;68276;49.326;8.690;2023-06-05T04:46:22;0.17;;;0.17;;
78887;SDS011;68276;49.326;8.690;2023-06-05T04:48:48;0.73;;;0.30;;
78887;SDS011;68276;49.326;8.690;2023-06-05T04:51:13;2.60;;;0.68;;
78887;SDS011;68276;49.326;8.690;2023-06-05T04:53:40;0.45;;;0.20;;
78887;SDS011;68276;49.326;8.690;2023-06-05T04:58:33;0.45;;;0.13;;
78887;SDS011;68276;49.326;8.690;2023-06-05T05:00:58;1.20;;;0.27;;
78887;SDS011;68276;49.326;8.690;2023-06-05T05:03:30;1.35;;;0.38;;
78887;SDS011;68276;49.326;8.690;2023-06-05T05:05:56;0.00;;;0.00;;
78887;SDS011;68276;49.326;8.690;2023-06-05T05:08:22;0.60;;;0.30;;
78887;SDS011;68276;49.326;8.690;2023-06-05T05:10:47;0.30;;;0.30;;
78887;SDS011;68276;49.326;8.690;2023-06-05T05:13:13;0.00;;;0.00;;
78887;SDS011;68276;49.326;8.690;2023-06-05T05:15:38;2.00;;;0.73;;
78887;SDS011;68276;49.326;8.690;2023-06-05T05:18:04;1.17;;;0.52;;
78887;SDS011;68276;49.326;8.690;2023-06-05T05:20:29;0.13;;;0.13;;
78887;SDS011;68276;49.326;8.690;2023-06-05T05:22:57;0.40;;;0.20;;
78887;SDS011;68276;49.326;8.690;2023-06-05T05:25:24;1.13;;;0.52;;
78887;SDS011;68276;49.326;8.690;2023-06-05T05:27:50;0.80;;;0.20;;
78887;SDS011;68276;49.326;8.690;2023-06-05T05:30:16;0.00;;;0.00;;
78887;SDS011;68276;49.326;8.690;2023-06-05T05:32:41;1.00;;;0.60;;
78887;SDS011;68276;49.326;8.690;2023-06-05T05:35:06;0.65;;;0.50;;
78887;SDS011;68276;49.326;8.690;2023-06-05T05:37:33;0.82;;;0.30;;
78887;SDS011;68276;49.326;8.690;2023-06-05T05:39:58;0.60;;;0.23;;
78887;SDS011;68276;49.326;8.690;2023-06-05T05:42:23;0.57;;;0.10;;
78887;SDS011;68276;49.326;8.690;2023-06-05T05:44:49;0.37;;;0.30;;
78887;SDS011;68276;49.326;8.690;2023-06-05T05:47:14;0.30;;;0.10;;
78887;SDS011;68276;49.326;8.690;2023-06-05T05:49:40;0.95;;;0.40;;
78887;SDS011;68276;49.326;8.690;2023-06-05T05:52:05;2.07;;;0.47;;
78887;SDS011;68276;49.326;8.690;2023-06-05T05:54:30;0.20;;;0.20;;
78887;SDS011;68276;49.326;8.690;2023-06-05T05:56:56;1.50;;;0.50;;
78887;SDS011;68276;49.326;8.690;2023-06-05T05:59:21;0.47;;;0.20;;
78887;SDS011;68276;49.326;8.690;2023-06-05T06:01:47;0.85;;;0.52;;
78887;SDS011;68276;49.326;8.690;2023-06-05T06:04:16;0.70;;;0.32;;
78887;SDS011;68276;49.326;8.690;2023-06-05T06:09:08;0.20;;;0.20;;
78887;SDS011;68276;49.326;8.690;2023-06-05T06:14:01;0.10;;;0.10;;
78887;SDS011;68276;49.326;8.690;2023-06-05T06:16:27;0.38;;;0.15;;
78887;SDS011;68276;49.326;8.690;2023-06-05T06:18:52;0.43;;;0.17;;
78887;SDS011;68276;49.326;8.690;2023-06-05T06:21:17;1.57;;;0.50;;
78887;SDS011;68276;49.326;8.690;2023-06-05T06:23:43;0.38;;;0.20;;
78887;SDS011;68276;49.326;8.690;2023-06-05T06:26:10;2.90;;;0.90;;
78887;SDS011;68276;49.326;8.690;2023-06-05T06:28:36;1.13;;;0.57;;
78887;SDS011;68276;49.326;8.690;2023-06-05T06:31:02;0.35;;;0.25;;
78887;SDS011;68276;49.326;8.690;2023-06-05T06:33:28;0.20;;;0.20;;
78887;SDS011;68276;49.326;8.690;2023-06-05T06:35:54;0.85;;;0.28;;
78887;SDS011;68276;49.326;8.690;2023-06-05T06:38:19;0.88;;;0.45;;
78887;SDS011;68276;49.326;8.690;2023-06-05T06:40:45;0.85;;;0.52;;
78887;SDS011;68276;49.326;8.690;2023-06-05T06:43:11;1.17;;;0.43;;
78887;SDS011;68276;49.326;8.690;2023-06-05T06:45:37;1.13;;;0.57;;
78887;SDS011;68276;49.326;8.690;2023-06-05T06:48:02;0.23;;;0.17;;
78887;SDS011;68276;49.326;8.690;2023-06-05T06:50:28;0.68;;;0.28;;
78887;SDS011;68276;49.326;8.690;2023-06-05T06:52:53;0.10;;;0.10;;
78887;SDS011;68276;49.326;8.690;2023-06-05T06:55:18;0.93;;;0.40;;
78887;SDS011;68276;49.326;8.690;2023-06-05T06:57:44;0.50;;;0.35;;
78887;SDS011;68276;49.326;8.690;2023-06-05T07:00:10;0.80;;;0.30;;
78887;SDS011;68276;49.326;8.690;2023-06-05T07:02:36;0.85;;;0.52;;
78887;SDS011;68276;49.326;8.690;2023-06-05T07:05:03;0.77;;;0.35;;
78887;SDS011;68276;49.326;8.690;2023-06-05T07:07:29;0.20;;;0.20;;
78887;SDS011;68276;49.326;8.690;2023-06-05T07:09:54;0.57;;;0.33;;
78887;SDS011;68276;49.326;8.690;2023-06-05T07:12:20;0.98;;;0.40;;
78887;SDS011;68276;49.326;8.690;2023-06-05T07:14:47;0.98;;;0.60;;
78887;SDS011;68276;49.326;8.690;2023-06-05T07:17:13;1.08;;;0.68;;
78887;SDS011;68276;49.326;8.690;2023-06-05T07:19:39;0.90;;;0.30;;
78887;SDS011;68276;49.326;8.690;2023-06-05T07:22:04;0.20;;;0.17;;
78887;SDS011;68276;49.326;8.690;2023-06-05T07:26:59;0.20;;;0.20;;
78887;SDS011;68276;49.326;8.690;2023-06-05T07:29:26;0.32;;;0.22;;
78887;SDS011;68276;49.326;8.690;2023-06-05T07:31:52;0.55;;;0.38;;
78887;SDS011;68276;49.326;8.690;2023-06-05T07:34:19;1.48;;;0.50;;
78887;SDS011;68276;49.326;8.690;2023-06-05T07:36:46;0.88;;;0.40;;
78887;SDS011;68276;49.326;8.690;2023-06-05T07:39:13;0.60;;;0.30;;
78887;SDS011;68276;49.326;8.690;2023-06-05T07:41:39;0.77;;;0.43;;
78887;SDS011;68276;49.326;8.690;2023-06-05T07:44:05;0.47;;;0.30;;
78887;SDS011;68276;49.326;8.690;2023-06-05T07:46:33;0.98;;;0.40;;
78887;SDS011;68276;49.326;8.690;2023-06-05T07:48:58;0.43;;;0.28;;
78887;SDS011;68276;49.326;8.690;2023-06-05T07:51:24;0.47;;;0.20;;
78887;SDS011;68276;49.326;8.690;2023-06-05T07:53:50;1.30;;;0.60;;
78887;SDS011;68276;49.326;8.690;2023-06-05T07:58:41;0.68;;;0.38;;
78887;SDS011;68276;49.326;8.690;2023-06-05T08:03:33;0.17;;;0.15;;
78887;SDS011;68276;49.326;8.690;2023-06-05T08:08:24;0.43;;;0.30;;
78887;SDS011;68276;49.326;8.690;2023-06-05T08:13:15;2.00;;;0.73;;
78887;SDS011;68276;49.326;8.690;2023-06-05T08:15:41;0.40;;;0.10;;
78887;SDS011;68276;49.326;8.690;2023-06-05T08:20:32;0.57;;;0.30;;
78887;SDS011;68276;49.326;8.690;2023-06-05T08:25:26;1.50;;;0.53;;
78887;SDS011;68276;49.326;8.690;2023-06-05T08:27:51;1.10;;;0.45;;
78887;SDS011;68276;49.326;8.690;2023-06-05T08:30:17;2.10;;;0.57;;
78887;SDS011;68276;49.326;8.690;2023-06-05T08:32:44;0.70;;;0.40;;
78887;SDS011;68276;49.326;8.690;2023-06-05T08:37:36;0.95;;;0.45;;
78887;SDS011;68276;49.326;8.690;2023-06-05T08:40:05;0.98;;;0.32;;
78887;SDS011;68276;49.326;8.690;2023-06-05T08:42:33;1.95;;;0.43;;
78887;SDS011;68276;49.326;8.690;2023-06-05T08:47:25;1.30;;;0.40;;
78887;SDS011;68276;49.326;8.690;2023-06-05T08:49:55;1.40;;;0.57;;
78887;SDS011;68276;49.326;8.690;2023-06-05T08:52:22;0.90;;;0.47;;
78887;SDS011;68276;49.326;8.690;2023-06-05T08:54:50;1.13;;;0.47;;
78887;SDS011;68276;49.326;8.690;2023-06-05T08:57:16;1.77;;;0.68;;
78887;SDS011;68276;49.326;8.690;2023-06-05T09:02:07;0.75;;;0.45;;
78887;SDS011;68276;49.326;8.690;2023-06-05T09:04:34;0.70;;;0.35;;
78887;SDS011;68276;49.326;8.690;2023-06-05T09:09:25;1.10;;;0.63;;
78887;SDS011;68276;49.326;8.690;2023-06-05T09:14:35;1.38;;;0.55;;
78887;SDS011;68276;49.326;8.690;2023-06-05T09:17:01;1.92;;;0.73;;
78887;SDS011;68276;49.326;8.690;2023-06-05T09:19:40;2.50;;;0.90;;
78887;SDS011;68276;49.326;8.690;2023-06-05T09:22:08;1.67;;;0.73;;
78887;SDS011;68276;49.326;8.690;2023-06-05T09:24:35;1.63;;;0.60;;
78887;SDS011;68276;49.326;8.690;2023-06-05T09:27:05;2.00;;;0.70;;
78887;SDS011;68276;49.326;8.690;2023-06-05T09:32:02;1.00;;;0.60;;
78887;SDS011;68276;49.326;8.690;2023-06-05T09:34:39;1.45;;;0.65;;
78887;SDS011;68276;49.326;8.690;2023-06-05T09:37:05;2.42;;;0.80;;
78887;SDS011;68276;49.326;8.690;2023-06-05T09:39:33;3.45;;;0.82;;
78887;SDS011;68276;49.326;8.690;2023-06-05T09:42:00;1.17;;;0.45;;
78887;SDS011;68276;49.326;8.690;2023-06-05T09:44:26;2.38;;;0.80;;
78887;SDS011;68276;49.326;8.690;2023-06-05T09:46:55;1.73;;;0.73;;
78887;SDS011;68276;49.326;8.690;2023-06-05T09:49:21;2.45;;;1.02;;
78887;SDS011;68276;49.326;8.690;2023-06-05T09:51:49;1.30;;;0.68;;
78887;SDS011;68276;49.326;8.690;2023-06-05T09:54:14;1.85;;;0.63;;
78887;SDS011;68276;49.326;8.690;2023-06-05T09:56:41;1.95;;;0.52;;
78887;SDS011;68276;49.326;8.690;2023-06-05T09:59:07;2.30;;;0.80;;
78887;SDS011;68276;49.326;8.690;2023-06-05T10:01:35;1.45;;;0.80;;
78887;SDS011;68276;49.326;8.690;2023-06-05T10:04:02;2.03;;;1.17;;
78887;SDS011;68276;49.326;8.690;2023-06-05T10:06:31;1.98;;;0.80;;
78887;SDS011;68276;49.326;8.690;2023-06-05T10:08:58;2.42;;;0.80;;
78887;SDS011;68276;49.326;8.690;2023-06-05T10:11:25;1.20;;;0.68;;
78887;SDS011;68276;49.326;8.690;2023-06-05T10:13:52;1.88;;;1.00;;
78887;SDS011;68276;49.326;8.690;2023-06-05T10:16:19;1.70;;;0.57;;
78887;SDS011;68276;49.326;8.690;2023-06-05T10:18:48;1.60;;;0.68;;
78887;SDS011;68276;49.326;8.690;2023-06-05T10:21:15;1.13;;;0.70;;
78887;SDS011;68276;49.326;8.690;2023-06-05T10:23:45;2.35;;;0.80;;
78887;SDS011;68276;49.326;8.690;2023-06-05T10:29:39;3.38;;;0.70;;
78887;SDS011;68276;49.326;8.690;2023-06-05T10:38:29;2.85;;;0.90;;
78887;SDS011;68276;49.326;8.690;2023-06-05T10:40:57;2.28;;;1.13;;
78887;SDS011;68276;49.326;8.690;2023-06-05T10:45:50;1.67;;;0.70;;
78887;SDS011;68276;49.326;8.690;2023-06-05T10:48:16;1.73;;;0.80;;
78887;SDS011;68276;49.326;8.690;2023-06-05T10:50:43;2.20;;;1.00;;
78887;SDS011;68276;49.326;8.690;2023-06-05T10:53:09;1.75;;;0.88;;
78887;SDS011;68276;49.326;8.690;2023-06-05T10:59:15;1.83;;;0.98;;
78887;SDS011;68276;49.326;8.690;2023-06-05T11:01:41;0.52;;;0.40;;
78887;SDS011;68276;49.326;8.690;2023-06-05T11:04:06;0.98;;;0.50;;
78887;SDS011;68276;49.326;8.690;2023-06-05T11:06:32;2.25;;;0.80;;
78887;SDS011;68276;49.326;8.690;2023-06-05T11:09:11;1.10;;;0.60;;
78887;SDS011;68276;49.326;8.690;2023-06-05T11:11:59;3.35;;;1.30;;
78887;SDS011;68276;49.326;8.690;2023-06-05T11:14:45;1.10;;;0.77;;
78887;SDS011;68276;49.326;8.690;2023-06-05T11:17:30;1.05;;;0.52;;
78887;SDS011;68276;49.326;8.690;2023-06-05T11:19:57;2.10;;;0.98;;
78887;SDS011;68276;49.326;8.690;2023-06-05T11:22:30;0.95;;;0.60;;
78887;SDS011;68276;49.326;8.690;2023-06-05T11:28:02;0.93;;;0.47;;
78887;SDS011;68276;49.326;8.690;2023-06-05T11:30:39;1.98;;;0.90;;
78887;SDS011;68276;49.326;8.690;2023-06-05T11:33:08;1.02;;;0.60;;
78887;SDS011;68276;49.326;8.690;2023-06-05T11:35:34;2.20;;;0.57;;
78887;SDS011;68276;49.326;8.690;2023-06-05T11:38:07;2.95;;;0.70;;
78887;SDS011;68276;49.326;8.690;2023-06-05T11:40:36;0.57;;;0.38;;
78887;SDS011;68276;49.326;8.690;2023-06-05T11:43:03;0.77;;;0.43;;
78887;SDS011;68276;49.326;8.690;2023-06-05T11:45:30;1.02;;;0.65;;
78887;SDS011;68276;49.326;8.690;2023-06-05T11:48:10;1.45;;;0.60;;
78887;SDS011;68276;49.326;8.690;2023-06-05T11:50:51;1.30;;;0.77;;
78887;SDS011;68276;49.326;8.690;2023-06-05T11:53:19;0.93;;;0.68;;
78887;SDS011;68276;49.326;8.690;2023-06-05T11:55:45;1.10;;;0.70;;
78887;SDS011;68276;49.326;8.690;2023-06-05T11:58:27;1.73;;;0.77;;
78887;SDS011;68276;49.326;8.690;2023-06-05T12:01:09;1.27;;;0.70;;
78887;SDS011;68276;49.326;8.690;2023-06-05T12:03:43;1.90;;;0.90;;
78887;SDS011;68276;49.326;8.690;2023-06-05T12:06:10;2.60;;;0.98;;
78887;SDS011;68276;49.326;8.690;2023-06-05T12:08:38;1.75;;;0.73;;
78887;SDS011;68276;49.326;8.690;2023-06-05T12:11:18;1.33;;;0.40;;
78887;SDS011;68276;49.326;8.690;2023-06-05T12:16:11;1.70;;;0.52;;
78887;SDS011;68276;49.326;8.690;2023-06-05T12:18:37;1.52;;;0.60;;
78887;SDS011;68276;49.326;8.690;2023-06-05T12:21:02;1.00;;;0.50;;
78887;SDS011;68276;49.326;8.690;2023-06-05T12:23:29;1.70;;;0.63;;
78887;SDS011;68276;49.326;8.690;2023-06-05T12:26:04;3.05;;;1.00;;
78887;SDS011;68276;49.326;8.690;2023-06-05T12:28:30;1.27;;;0.80;;
78887;SDS011;68276;49.326;8.690;2023-06-05T12:30:57;2.38;;;0.60;;
78887;SDS011;68276;49.326;8.690;2023-06-05T12:33:23;1.63;;;0.75;;
78887;SDS011;68276;49.326;8.690;2023-06-05T12:36:05;3.15;;;1.10;;
78887;SDS011;68276;49.326;8.690;2023-06-05T12:38:38;1.05;;;0.50;;
78887;SDS011;68276;49.326;8.690;2023-06-05T12:41:04;2.80;;;1.00;;
78887;SDS011;68276;49.326;8.690;2023-06-05T12:43:32;4.10;;;1.20;;
78887;SDS011;68276;49.326;8.690;2023-06-05T12:45:58;1.08;;;0.63;;
78887;SDS011;68276;49.326;8.690;2023-06-05T12:48:24;3.40;;;1.40;;
78887;SDS011;68276;49.326;8.690;2023-06-05T12:50:50;0.60;;;0.52;;
78887;SDS011;68276;49.326;8.690;2023-06-05T12:53:16;2.83;;;0.90;;
78887;SDS011;68276;49.326;8.690;2023-06-05T12:55:41;2.08;;;0.73;;
78887;SDS011;68276;49.326;8.690;2023-06-05T12:58:07;1.17;;;0.80;;
78887;SDS011;68276;49.326;8.690;2023-06-05T13:00:32;1.97;;;0.93;;
78887;SDS011;68276;49.326;8.690;2023-06-05T13:02:58;1.75;;;0.63;;
78887;SDS011;68276;49.326;8.690;2023-06-05T13:05:24;1.85;;;0.98;;
78887;SDS011;68276;49.326;8.690;2023-06-05T13:07:50;1.33;;;0.60;;
78887;SDS011;68276;49.326;8.690;2023-06-05T13:10:16;2.20;;;0.88;;
78887;SDS011;68276;49.326;8.690;2023-06-05T13:12:42;2.45;;;0.77;;
78887;SDS011;68276;49.326;8.690;2023-06-05T13:15:08;2.83;;;0.77;;
78887;SDS011;68276;49.326;8.690;2023-06-05T13:17:34;2.72;;;1.08;;
78887;SDS011;68276;49.326;8.690;2023-06-05T13:20:01;2.03;;;0.60;;
78887;SDS011;68276;49.326;8.690;2023-06-05T13:22:47;2.78;;;1.15;;
78887;SDS011;68276;49.326;8.690;2023-06-05T13:25:12;1.40;;;0.90;;
78887;SDS011;68276;49.326;8.690;2023-06-05T13:27:38;2.20;;;1.03;;
78887;SDS011;68276;49.326;8.690;2023-06-05T13:30:03;2.08;;;0.80;;
78887;SDS011;68276;49.326;8.690;2023-06-05T13:32:30;1.00;;;0.70;;
78887;SDS011;68276;49.326;8.690;2023-06-05T13:34:58;2.13;;;0.98;;
78887;SDS011;68276;49.326;8.690;2023-06-05T13:37:24;3.83;;;1.03;;
78887;SDS011;68276;49.326;8.690;2023-06-05T13:39:49;2.72;;;1.13;;
78887;SDS011;68276;49.326;8.690;2023-06-05T13:42:15;2.80;;;1.17;;
78887;SDS011;68276;49.326;8.690;2023-06-05T13:44:40;1.55;;;0.77;;
78887;SDS011;68276;49.326;8.690;2023-06-05T13:47:06;2.53;;;0.97;;
78887;SDS011;68276;49.326;8.690;2023-06-05T13:49:33;3.35;;;1.10;;
78887;SDS011;68276;49.326;8.690;2023-06-05T13:51:59;2.40;;;0.85;;
78887;SDS011;68276;49.326;8.690;2023-06-05T13:54:24;2.47;;;0.93;;
78887;SDS011;68276;49.326;8.690;2023-06-05T13:56:50;1.10;;;0.77;;
78887;SDS011;68276;49.326;8.690;2023-06-05T13:59:16;2.17;;;0.90;;
78887;SDS011;68276;49.326;8.690;2023-06-05T14:01:42;1.60;;;0.80;;
78887;SDS011;68276;49.326;8.690;2023-06-05T14:04:07;2.10;;;1.02;;
78887;SDS011;68276;49.326;8.690;2023-06-05T14:06:33;2.63;;;0.95;;
78887;SDS011;68276;49.326;8.690;2023-06-05T14:09:02;2.10;;;1.30;;
78887;SDS011;68276;49.326;8.690;2023-06-05T14:11:27;2.38;;;0.98;;
78887;SDS011;68276;49.326;8.690;2023-06-05T14:13:53;2.03;;;1.10;;
78887;SDS011;68276;49.326;8.690;2023-06-05T14:16:18;2.50;;;1.00;;
78887;SDS011;68276;49.326;8.690;2023-06-05T14:18:45;2.00;;;0.93;;
78887;SDS011;68276;49.326;8.690;2023-06-05T14:21:10;2.13;;;0.90;;
78887;SDS011;68276;49.326;8.690;2023-06-05T14:23:36;2.40;;;1.23;;
78887;SDS011;68276;49.326;8.690;2023-06-05T14:26:01;2.15;;;1.25;;
78887;SDS011;68276;49.326;8.690;2023-06-05T14:28:26;2.03;;;0.80;;
78887;SDS011;68276;49.326;8.690;2023-06-05T14:30:53;2.70;;;1.10;;
78887;SDS011;68276;49.326;8.690;2023-06-05T14:33:19;2.13;;;1.25;;
78887;SDS011;68276;49.326;8.690;2023-06-05T14:35:45;1.40;;;0.90;;
78887;SDS011;68276;49.326;8.690;2023-06-05T14:38:10;2.80;;;1.30;;
78887;SDS011;68276;49.326;8.690;2023-06-05T14:40:39;1.55;;;1.05;;
78887;SDS011;68276;49.326;8.690;2023-06-05T14:43:05;2.55;;;1.10;;
78887;SDS011;68276;49.326;8.690;2023-06-05T14:45:30;3.45;;;1.13;;
78887;SDS011;68276;49.326;8.690;2023-06-05T14:47:56;2.53;;;1.10;;
78887;SDS011;68276;49.326;8.690;2023-06-05T14:50:22;3.60;;;1.10;;
78887;SDS011;68276;49.326;8.690;2023-06-05T14:52:47;2.17;;;1.03;;
78887;SDS011;68276;49.326;8.690;2023-06-05T14:55:12;2.20;;;0.90;;
78887;SDS011;68276;49.326;8.690;2023-06-05T14:57:38;2.33;;;1.20;;
78887;SDS011;68276;49.326;8.690;2023-06-05T15:00:04;2.88;;;1.13;;
78887;SDS011;68276;49.326;8.690;2023-06-05T15:02:30;1.83;;;1.00;;
78887;SDS011;68276;49.326;8.690;2023-06-05T15:04:56;3.63;;;1.60;;
78887;SDS011;68276;49.326;8.690;2023-06-05T15:07:23;1.88;;;1.13;;
78887;SDS011;68276;49.326;8.690;2023-06-05T15:09:49;2.40;;;1.23;;
78887;SDS011;68276;49.326;8.690;2023-06-05T15:12:16;2.03;;;0.80;;
78887;SDS011;68276;49.326;8.690;2023-06-05T15:14:42;1.38;;;1.00;;
78887;SDS011;68276;49.326;8.690;2023-06-05T15:17:08;1.92;;;0.85;;
78887;SDS011;68276;49.326;8.690;2023-06-05T15:19:34;1.70;;;0.90;;
78887;SDS011;68276;49.326;8.690;2023-06-05T15:21:59;2.03;;;0.97;;
78887;SDS011;68276;49.326;8.690;2023-06-05T15:24:26;1.70;;;0.90;;
78887;SDS011;68276;49.326;8.690;2023-06-05T15:26:51;3.03;;;1.10;;
78887;SDS011;68276;49.326;8.690;2023-06-05T15:29:17;1.45;;;1.02;;
78887;SDS011;68276;49.326;8.690;2023-06-05T15:31:42;1.98;;;1.00;;
78887;SDS011;68276;49.326;8.690;2023-06-05T15:34:08;2.45;;;1.27;;
78887;SDS011;68276;49.326;8.690;2023-06-05T15:36:33;2.08;;;1.02;;
78887;SDS011;68276;49.326;8.690;2023-06-05T15:38:58;2.23;;;0.93;;
78887;SDS011;68276;49.326;8.690;2023-06-05T15:41:24;2.30;;;0.90;;
78887;SDS011;68276;49.326;8.690;2023-06-05T15:43:50;0.98;;;0.80;;
78887;SDS011;68276;49.326;8.690;2023-06-05T15:46:16;2.58;;;0.90;;
78887;SDS011;68276;49.326;8.690;2023-06-05T15:48:41;1.63;;;0.90;;
78887;SDS011;68276;49.326;8.690;2023-06-05T15:51:07;1.92;;;0.88;;
78887;SDS011;68276;49.326;8.690;2023-06-05T15:53:33;1.48;;;0.80;;
78887;SDS011;68276;49.326;8.690;2023-06-05T15:55:59;1.50;;;0.82;;
78887;SDS011;68276;49.326;8.690;2023-06-05T15:58:25;2.08;;;0.80;;
78887;SDS011;68276;49.326;8.690;2023-06-05T16:00:50;2.53;;;1.20;;
78887;SDS011;68276;49.326;8.690;2023-06-05T16:03:16;2.20;;;0.93;;
78887;SDS011;68276;49.326;8.690;2023-06-05T16:05:42;2.35;;;1.05;;